sensor_id;sensor_type;location;lat;lon;timestamp;P1;durP1;ratioP1;P2;durP2;ratioP2
35518;SDS011;21627;48.216;16.482;2022-08-23T00:01:57;2.47;;;0.98;;
35518;SDS011;21627;48.216;16.482;2022-08-23T00:04:29;2.40;;;0.95;;
35518;SDS011;21627;48.216;16.482;2022-08-23T00:07:10;1.40;;;0.93;;
35518;SDS011;21627;48.216;16.482;2022-08-23T00:09:42;1.38;;;0.98;;
35518;SDS011;21627;48.216;16.482;2022-08-23T00:12:14;3.92;;;1.27;;
35518;SDS011;21627;48.216;16.482;2022-08-23T00:14:47;1.13;;;1.00;;
35518;SDS011;21627;48.216;16.482;2022-08-23T00:17:17;4.28;;;0.90;;
35518;SDS011;21627;48.216;16.482;2022-08-23T00:20:00;1.75;;;1.25;;
35518;SDS011;21627;48.216;16.482;2022-08-23T00:22:39;1.60;;;1.20;;
35518;SDS011;21627;48.216;16.482;2022-08-23T00:25:08;1.17;;;0.95;;
35518;SDS011;21627;48.216;16.482;2022-08-23T00:27:42;1.63;;;0.95;;
35518;SDS011;21627;48.216;16.482;2022-08-23T00:30:16;2.88;;;0.98;;
35518;SDS011;21627;48.216;16.482;2022-08-23T00:32:44;0.88;;;0.80;;
35518;SDS011;21627;48.216;16.482;2022-08-23T00:35:13;1.00;;;0.90;;
35518;SDS011;21627;48.216;16.482;2022-08-23T00:37:53;3.08;;;1.15;;
35518;SDS011;21627;48.216;16.482;2022-08-23T00:40:45;1.95;;;0.90;;
35518;SDS011;21627;48.216;16.482;2022-08-23T00:43:21;0.97;;;0.70;;
35518;SDS011;21627;48.216;16.482;2022-08-23T00:49:30;0.65;;;0.65;;
35518;SDS011;21627;48.216;16.482;2022-08-23T00:52:02;2.67;;;0.88;;
35518;SDS011;21627;48.216;16.482;2022-08-23T00:54:43;0.80;;;0.80;;
35518;SDS011;21627;48.216;16.482;2022-08-23T00:57:12;2.83;;;0.80;;
35518;SDS011;21627;48.216;16.482;2022-08-23T00:59:48;1.02;;;0.90;;
35518;SDS011;21627;48.216;16.482;2022-08-23T01:02:19;4.40;;;1.17;;
35518;SDS011;21627;48.216;16.482;2022-08-23T01:04:52;2.92;;;0.88;;
35518;SDS011;21627;48.216;16.482;2022-08-23T01:07:32;1.63;;;0.90;;
35518;SDS011;21627;48.216;16.482;2022-08-23T01:10:17;1.20;;;0.70;;
35518;SDS011;21627;48.216;16.482;2022-08-23T01:12:57;3.78;;;0.85;;
35518;SDS011;21627;48.216;16.482;2022-08-23T01:15:36;0.45;;;0.45;;
35518;SDS011;21627;48.216;16.482;2022-08-23T01:18:17;3.22;;;1.05;;
35518;SDS011;21627;48.216;16.482;2022-08-23T01:21:22;3.75;;;0.90;;
35518;SDS011;21627;48.216;16.482;2022-08-23T01:24:04;1.13;;;0.80;;
35518;SDS011;21627;48.216;16.482;2022-08-23T01:26:33;3.42;;;0.90;;
35518;SDS011;21627;48.216;16.482;2022-08-23T01:29:02;4.22;;;1.02;;
35518;SDS011;21627;48.216;16.482;2022-08-23T01:31:32;5.53;;;1.08;;
35518;SDS011;21627;48.216;16.482;2022-08-23T01:34:05;4.80;;;0.98;;
35518;SDS011;21627;48.216;16.482;2022-08-23T01:36:38;1.65;;;0.98;;
35518;SDS011;21627;48.216;16.482;2022-08-23T01:39:11;2.20;;;0.80;;
35518;SDS011;21627;48.216;16.482;2022-08-23T01:41:39;1.70;;;1.20;;
35518;SDS011;21627;48.216;16.482;2022-08-23T01:44:06;2.35;;;0.70;;
35518;SDS011;21627;48.216;16.482;2022-08-23T01:46:37;6.05;;;0.90;;
35518;SDS011;21627;48.216;16.482;2022-08-23T01:49:08;3.60;;;1.10;;
35518;SDS011;21627;48.216;16.482;2022-08-23T01:51:41;1.20;;;0.60;;
35518;SDS011;21627;48.216;16.482;2022-08-23T01:54:08;1.63;;;0.88;;
35518;SDS011;21627;48.216;16.482;2022-08-23T01:56:36;0.82;;;0.70;;
35518;SDS011;21627;48.216;16.482;2022-08-23T01:59:06;1.73;;;0.80;;
35518;SDS011;21627;48.216;16.482;2022-08-23T02:01:36;2.42;;;1.00;;
35518;SDS011;21627;48.216;16.482;2022-08-23T02:04:04;1.13;;;0.77;;
35518;SDS011;21627;48.216;16.482;2022-08-23T02:06:32;5.72;;;0.70;;
35518;SDS011;21627;48.216;16.482;2022-08-23T02:08:59;2.30;;;1.05;;
35518;SDS011;21627;48.216;16.482;2022-08-23T02:11:33;3.10;;;1.05;;
35518;SDS011;21627;48.216;16.482;2022-08-23T02:14:11;3.75;;;1.00;;
35518;SDS011;21627;48.216;16.482;2022-08-23T02:16:48;5.63;;;0.80;;
35518;SDS011;21627;48.216;16.482;2022-08-23T02:19:30;4.63;;;2.15;;
35518;SDS011;21627;48.216;16.482;2022-08-23T02:22:03;2.13;;;0.65;;
35518;SDS011;21627;48.216;16.482;2022-08-23T02:24:33;4.38;;;1.00;;
35518;SDS011;21627;48.216;16.482;2022-08-23T02:27:07;2.65;;;1.13;;
35518;SDS011;21627;48.216;16.482;2022-08-23T02:29:34;5.57;;;1.15;;
35518;SDS011;21627;48.216;16.482;2022-08-23T02:32:05;1.60;;;0.88;;
35518;SDS011;21627;48.216;16.482;2022-08-23T02:34:35;4.95;;;1.05;;
35518;SDS011;21627;48.216;16.482;2022-08-23T02:37:06;1.45;;;1.00;;
35518;SDS011;21627;48.216;16.482;2022-08-23T02:39:35;1.35;;;0.80;;
35518;SDS011;21627;48.216;16.482;2022-08-23T02:42:04;1.77;;;1.10;;
35518;SDS011;21627;48.216;16.482;2022-08-23T02:44:36;1.80;;;0.82;;
35518;SDS011;21627;48.216;16.482;2022-08-23T02:47:05;9.32;;;0.95;;
35518;SDS011;21627;48.216;16.482;2022-08-23T02:49:34;4.72;;;0.90;;
35518;SDS011;21627;48.216;16.482;2022-08-23T02:52:03;6.80;;;1.15;;
35518;SDS011;21627;48.216;16.482;2022-08-23T02:54:33;5.55;;;0.85;;
35518;SDS011;21627;48.216;16.482;2022-08-23T02:57:01;4.43;;;0.90;;
35518;SDS011;21627;48.216;16.482;2022-08-23T02:59:28;3.35;;;1.35;;
35518;SDS011;21627;48.216;16.482;2022-08-23T03:01:56;1.55;;;1.05;;
35518;SDS011;21627;48.216;16.482;2022-08-23T03:04:23;2.50;;;0.80;;
35518;SDS011;21627;48.216;16.482;2022-08-23T03:06:51;2.97;;;1.00;;
35518;SDS011;21627;48.216;16.482;2022-08-23T03:09:21;10.35;;;1.05;;
35518;SDS011;21627;48.216;16.482;2022-08-23T03:11:48;2.30;;;0.90;;
35518;SDS011;21627;48.216;16.482;2022-08-23T03:14:16;2.25;;;0.80;;
35518;SDS011;21627;48.216;16.482;2022-08-23T03:16:43;1.33;;;0.85;;
35518;SDS011;21627;48.216;16.482;2022-08-23T03:19:11;1.10;;;0.93;;
35518;SDS011;21627;48.216;16.482;2022-08-23T03:21:38;3.72;;;1.00;;
35518;SDS011;21627;48.216;16.482;2022-08-23T03:24:08;2.25;;;0.85;;
35518;SDS011;21627;48.216;16.482;2022-08-23T03:26:42;3.80;;;0.82;;
35518;SDS011;21627;48.216;16.482;2022-08-23T03:29:11;6.65;;;1.23;;
35518;SDS011;21627;48.216;16.482;2022-08-23T03:31:39;1.20;;;0.93;;
35518;SDS011;21627;48.216;16.482;2022-08-23T03:34:07;2.10;;;1.23;;
35518;SDS011;21627;48.216;16.482;2022-08-23T03:36:34;4.68;;;0.95;;
35518;SDS011;21627;48.216;16.482;2022-08-23T03:39:02;3.35;;;1.00;;
35518;SDS011;21627;48.216;16.482;2022-08-23T03:41:31;1.67;;;1.10;;
35518;SDS011;21627;48.216;16.482;2022-08-23T03:44:02;1.95;;;1.20;;
35518;SDS011;21627;48.216;16.482;2022-08-23T03:46:30;5.05;;;1.15;;
35518;SDS011;21627;48.216;16.482;2022-08-23T03:49:00;1.65;;;1.40;;
35518;SDS011;21627;48.216;16.482;2022-08-23T03:51:32;6.55;;;1.50;;
35518;SDS011;21627;48.216;16.482;2022-08-23T03:54:00;2.63;;;1.30;;
35518;SDS011;21627;48.216;16.482;2022-08-23T03:56:29;1.52;;;1.20;;
35518;SDS011;21627;48.216;16.482;2022-08-23T03:59:02;1.67;;;1.35;;
35518;SDS011;21627;48.216;16.482;2022-08-23T04:01:32;4.70;;;1.40;;
35518;SDS011;21627;48.216;16.482;2022-08-23T04:04:00;6.90;;;1.80;;
35518;SDS011;21627;48.216;16.482;2022-08-23T04:06:28;7.82;;;2.08;;
35518;SDS011;21627;48.216;16.482;2022-08-23T04:08:58;6.75;;;1.88;;
35518;SDS011;21627;48.216;16.482;2022-08-23T04:11:26;5.47;;;1.90;;
35518;SDS011;21627;48.216;16.482;2022-08-23T04:13:53;3.67;;;2.03;;
35518;SDS011;21627;48.216;16.482;2022-08-23T04:16:24;9.82;;;2.53;;
35518;SDS011;21627;48.216;16.482;2022-08-23T04:18:51;11.60;;;2.50;;
35518;SDS011;21627;48.216;16.482;2022-08-23T04:21:19;8.25;;;2.05;;
35518;SDS011;21627;48.216;16.482;2022-08-23T04:23:49;3.40;;;2.65;;
35518;SDS011;21627;48.216;16.482;2022-08-23T04:26:17;5.93;;;2.00;;
35518;SDS011;21627;48.216;16.482;2022-08-23T04:28:48;2.53;;;2.20;;
35518;SDS011;21627;48.216;16.482;2022-08-23T04:31:16;1.92;;;1.80;;
35518;SDS011;21627;48.216;16.482;2022-08-23T04:33:47;2.30;;;1.98;;
35518;SDS011;21627;48.216;16.482;2022-08-23T04:36:18;2.60;;;2.25;;
35518;SDS011;21627;48.216;16.482;2022-08-23T04:38:49;2.85;;;2.30;;
35518;SDS011;21627;48.216;16.482;2022-08-23T04:41:17;2.80;;;2.10;;
35518;SDS011;21627;48.216;16.482;2022-08-23T04:44:03;4.82;;;2.10;;
35518;SDS011;21627;48.216;16.482;2022-08-23T04:46:34;2.28;;;2.08;;
35518;SDS011;21627;48.216;16.482;2022-08-23T04:49:01;2.08;;;1.80;;
35518;SDS011;21627;48.216;16.482;2022-08-23T04:51:29;4.28;;;2.20;;
35518;SDS011;21627;48.216;16.482;2022-08-23T04:53:56;3.30;;;2.58;;
35518;SDS011;21627;48.216;16.482;2022-08-23T04:56:23;2.83;;;2.10;;
35518;SDS011;21627;48.216;16.482;2022-08-23T04:58:51;2.45;;;1.70;;
35518;SDS011;21627;48.216;16.482;2022-08-23T05:01:21;2.15;;;1.83;;
35518;SDS011;21627;48.216;16.482;2022-08-23T05:03:53;2.05;;;1.85;;
35518;SDS011;21627;48.216;16.482;2022-08-23T05:06:21;3.80;;;2.05;;
35518;SDS011;21627;48.216;16.482;2022-08-23T05:08:49;1.90;;;1.70;;
35518;SDS011;21627;48.216;16.482;2022-08-23T05:11:17;6.65;;;1.88;;
35518;SDS011;21627;48.216;16.482;2022-08-23T05:13:44;3.60;;;1.73;;
35518;SDS011;21627;48.216;16.482;2022-08-23T05:16:11;2.15;;;1.90;;
35518;SDS011;21627;48.216;16.482;2022-08-23T05:18:39;6.53;;;2.05;;
35518;SDS011;21627;48.216;16.482;2022-08-23T05:21:18;2.67;;;1.90;;
35518;SDS011;21627;48.216;16.482;2022-08-23T05:23:51;4.63;;;1.85;;
35518;SDS011;21627;48.216;16.482;2022-08-23T05:26:23;5.45;;;1.85;;
35518;SDS011;21627;48.216;16.482;2022-08-23T05:28:51;8.32;;;2.20;;
35518;SDS011;21627;48.216;16.482;2022-08-23T05:31:19;5.32;;;2.05;;
35518;SDS011;21627;48.216;16.482;2022-08-23T05:36:21;2.60;;;1.92;;
35518;SDS011;21627;48.216;16.482;2022-08-23T05:38:51;8.38;;;2.35;;
35518;SDS011;21627;48.216;16.482;2022-08-23T05:41:19;2.78;;;2.20;;
35518;SDS011;21627;48.216;16.482;2022-08-23T05:43:46;2.63;;;2.08;;
35518;SDS011;21627;48.216;16.482;2022-08-23T05:46:16;2.78;;;2.35;;
35518;SDS011;21627;48.216;16.482;2022-08-23T05:48:49;2.97;;;2.10;;
35518;SDS011;21627;48.216;16.482;2022-08-23T05:53:56;2.88;;;2.38;;
35518;SDS011;21627;48.216;16.482;2022-08-23T05:56:33;3.92;;;2.65;;
35518;SDS011;21627;48.216;16.482;2022-08-23T05:59:05;3.47;;;2.25;;
35518;SDS011;21627;48.216;16.482;2022-08-23T06:01:38;3.28;;;2.35;;
35518;SDS011;21627;48.216;16.482;2022-08-23T06:04:10;2.42;;;2.00;;
35518;SDS011;21627;48.216;16.482;2022-08-23T06:06:38;2.92;;;2.47;;
35518;SDS011;21627;48.216;16.482;2022-08-23T06:09:09;6.80;;;2.22;;
35518;SDS011;21627;48.216;16.482;2022-08-23T06:11:41;3.03;;;2.45;;
35518;SDS011;21627;48.216;16.482;2022-08-23T06:14:13;4.70;;;2.65;;
35518;SDS011;21627;48.216;16.482;2022-08-23T06:16:42;3.03;;;2.50;;
35518;SDS011;21627;48.216;16.482;2022-08-23T06:19:13;3.88;;;2.72;;
35518;SDS011;21627;48.216;16.482;2022-08-23T06:21:43;3.53;;;2.30;;
35518;SDS011;21627;48.216;16.482;2022-08-23T06:24:11;4.88;;;2.60;;
35518;SDS011;21627;48.216;16.482;2022-08-23T06:26:39;8.60;;;2.42;;
35518;SDS011;21627;48.216;16.482;2022-08-23T06:29:14;7.72;;;2.88;;
35518;SDS011;21627;48.216;16.482;2022-08-23T06:31:47;3.05;;;2.63;;
35518;SDS011;21627;48.216;16.482;2022-08-23T06:34:26;2.95;;;2.25;;
35518;SDS011;21627;48.216;16.482;2022-08-23T06:37:09;4.60;;;2.78;;
35518;SDS011;21627;48.216;16.482;2022-08-23T06:39:42;4.07;;;2.90;;
35518;SDS011;21627;48.216;16.482;2022-08-23T06:42:13;3.55;;;2.75;;
35518;SDS011;21627;48.216;16.482;2022-08-23T06:45:08;3.15;;;2.85;;
35518;SDS011;21627;48.216;16.482;2022-08-23T06:47:36;4.70;;;3.08;;
35518;SDS011;21627;48.216;16.482;2022-08-23T06:50:06;3.60;;;2.63;;
35518;SDS011;21627;48.216;16.482;2022-08-23T06:52:37;5.50;;;2.70;;
35518;SDS011;21627;48.216;16.482;2022-08-23T06:55:08;3.17;;;2.50;;
35518;SDS011;21627;48.216;16.482;2022-08-23T06:57:39;3.47;;;2.70;;
35518;SDS011;21627;48.216;16.482;2022-08-23T07:00:06;3.97;;;2.85;;
35518;SDS011;21627;48.216;16.482;2022-08-23T07:02:36;5.20;;;2.60;;
35518;SDS011;21627;48.216;16.482;2022-08-23T07:05:07;3.97;;;2.78;;
35518;SDS011;21627;48.216;16.482;2022-08-23T07:07:34;3.13;;;2.70;;
35518;SDS011;21627;48.216;16.482;2022-08-23T07:10:09;2.78;;;2.45;;
35518;SDS011;21627;48.216;16.482;2022-08-23T07:12:40;5.20;;;3.15;;
35518;SDS011;21627;48.216;16.482;2022-08-23T07:15:09;3.67;;;2.92;;
35518;SDS011;21627;48.216;16.482;2022-08-23T07:17:38;3.42;;;2.92;;
35518;SDS011;21627;48.216;16.482;2022-08-23T07:20:05;7.07;;;2.75;;
35518;SDS011;21627;48.216;16.482;2022-08-23T07:22:33;3.53;;;2.40;;
35518;SDS011;21627;48.216;16.482;2022-08-23T07:25:00;5.07;;;2.67;;
35518;SDS011;21627;48.216;16.482;2022-08-23T07:27:35;4.15;;;2.17;;
35518;SDS011;21627;48.216;16.482;2022-08-23T07:30:05;11.35;;;2.75;;
35518;SDS011;21627;48.216;16.482;2022-08-23T07:32:33;2.95;;;2.50;;
35518;SDS011;21627;48.216;16.482;2022-08-23T07:35:00;4.68;;;2.63;;
35518;SDS011;21627;48.216;16.482;2022-08-23T07:37:28;4.88;;;2.58;;
35518;SDS011;21627;48.216;16.482;2022-08-23T07:39:56;3.28;;;2.30;;
35518;SDS011;21627;48.216;16.482;2022-08-23T07:42:23;3.10;;;2.38;;
35518;SDS011;21627;48.216;16.482;2022-08-23T07:44:51;3.28;;;2.65;;
35518;SDS011;21627;48.216;16.482;2022-08-23T07:47:19;3.05;;;2.47;;
35518;SDS011;21627;48.216;16.482;2022-08-23T07:49:47;2.47;;;2.25;;
35518;SDS011;21627;48.216;16.482;2022-08-23T07:52:15;3.88;;;2.40;;
35518;SDS011;21627;48.216;16.482;2022-08-23T07:54:42;2.97;;;2.33;;
35518;SDS011;21627;48.216;16.482;2022-08-23T07:57:14;2.70;;;2.30;;
35518;SDS011;21627;48.216;16.482;2022-08-23T07:59:41;6.28;;;2.33;;
35518;SDS011;21627;48.216;16.482;2022-08-23T08:02:08;2.53;;;1.90;;
35518;SDS011;21627;48.216;16.482;2022-08-23T08:04:36;2.97;;;2.17;;
35518;SDS011;21627;48.216;16.482;2022-08-23T08:07:03;2.33;;;1.77;;
35518;SDS011;21627;48.216;16.482;2022-08-23T08:09:44;5.57;;;1.88;;
35518;SDS011;21627;48.216;16.482;2022-08-23T08:12:12;3.63;;;1.77;;
35518;SDS011;21627;48.216;16.482;2022-08-23T08:14:44;2.58;;;2.03;;
35518;SDS011;21627;48.216;16.482;2022-08-23T08:17:14;2.42;;;1.60;;
35518;SDS011;21627;48.216;16.482;2022-08-23T08:19:47;2.20;;;1.75;;
35518;SDS011;21627;48.216;16.482;2022-08-23T08:22:14;1.83;;;1.65;;
35518;SDS011;21627;48.216;16.482;2022-08-23T08:24:44;1.92;;;1.65;;
35518;SDS011;21627;48.216;16.482;2022-08-23T08:27:14;2.22;;;1.10;;
35518;SDS011;21627;48.216;16.482;2022-08-23T08:29:41;2.08;;;1.40;;
35518;SDS011;21627;48.216;16.482;2022-08-23T08:32:09;1.20;;;1.10;;
35518;SDS011;21627;48.216;16.482;2022-08-23T08:34:39;1.73;;;1.00;;
35518;SDS011;21627;48.216;16.482;2022-08-23T08:37:14;1.00;;;0.80;;
35518;SDS011;21627;48.216;16.482;2022-08-23T08:39:41;1.52;;;0.90;;
35518;SDS011;21627;48.216;16.482;2022-08-23T08:42:32;0.98;;;0.90;;
35518;SDS011;21627;48.216;16.482;2022-08-23T08:53:08;12.07;;;1.83;;
35518;SDS011;21627;48.216;16.482;2022-08-23T08:55:44;3.83;;;1.20;;
35518;SDS011;21627;48.216;16.482;2022-08-23T08:58:20;1.10;;;1.00;;
35518;SDS011;21627;48.216;16.482;2022-08-23T09:01:24;1.63;;;1.10;;
35518;SDS011;21627;48.216;16.482;2022-08-23T09:03:52;1.85;;;1.20;;
35518;SDS011;21627;48.216;16.482;2022-08-23T09:06:21;1.30;;;1.00;;
35518;SDS011;21627;48.216;16.482;2022-08-23T09:09:18;1.65;;;1.33;;
35518;SDS011;21627;48.216;16.482;2022-08-23T09:15:32;1.30;;;1.20;;
35518;SDS011;21627;48.216;16.482;2022-08-23T09:18:02;1.50;;;1.30;;
35518;SDS011;21627;48.216;16.482;2022-08-23T09:20:43;4.88;;;1.70;;
35518;SDS011;21627;48.216;16.482;2022-08-23T09:23:17;2.17;;;1.60;;
35518;SDS011;21627;48.216;16.482;2022-08-23T09:26:04;1.33;;;1.23;;
35518;SDS011;21627;48.216;16.482;2022-08-23T09:28:52;2.15;;;1.70;;
35518;SDS011;21627;48.216;16.482;2022-08-23T09:31:42;2.97;;;1.70;;
35518;SDS011;21627;48.216;16.482;2022-08-23T09:34:14;1.60;;;1.50;;
35518;SDS011;21627;48.216;16.482;2022-08-23T09:37:11;3.60;;;1.48;;
35518;SDS011;21627;48.216;16.482;2022-08-23T09:39:49;3.22;;;2.00;;
35518;SDS011;21627;48.216;16.482;2022-08-23T09:42:42;2.15;;;1.90;;
35518;SDS011;21627;48.216;16.482;2022-08-23T09:45:23;1.83;;;1.67;;
35518;SDS011;21627;48.216;16.482;2022-08-23T09:48:05;2.10;;;1.70;;
35518;SDS011;21627;48.216;16.482;2022-08-23T09:50:43;3.30;;;2.20;;
35518;SDS011;21627;48.216;16.482;2022-08-23T09:53:23;4.32;;;2.10;;
35518;SDS011;21627;48.216;16.482;2022-08-23T09:55:55;2.53;;;2.17;;
35518;SDS011;21627;48.216;16.482;2022-08-23T09:58:35;5.68;;;2.28;;
35518;SDS011;21627;48.216;16.482;2022-08-23T10:01:23;3.78;;;2.55;;
35518;SDS011;21627;48.216;16.482;2022-08-23T10:04:06;3.53;;;2.50;;
35518;SDS011;21627;48.216;16.482;2022-08-23T10:06:54;4.07;;;2.92;;
35518;SDS011;21627;48.216;16.482;2022-08-23T10:11:55;3.30;;;2.60;;
35518;SDS011;21627;48.216;16.482;2022-08-23T10:14:25;5.20;;;2.47;;
35518;SDS011;21627;48.216;16.482;2022-08-23T10:22:34;3.33;;;2.60;;
35518;SDS011;21627;48.216;16.482;2022-08-23T10:25:19;3.85;;;2.92;;
35518;SDS011;21627;48.216;16.482;2022-08-23T10:28:20;3.72;;;2.88;;
35518;SDS011;21627;48.216;16.482;2022-08-23T10:31:41;2.50;;;2.30;;
35518;SDS011;21627;48.216;16.482;2022-08-23T10:38:11;3.80;;;2.40;;
35518;SDS011;21627;48.216;16.482;2022-08-23T10:47:23;4.75;;;3.15;;
35518;SDS011;21627;48.216;16.482;2022-08-23T10:50:12;4.72;;;2.90;;
35518;SDS011;21627;48.216;16.482;2022-08-23T10:55:39;3.13;;;2.20;;
35518;SDS011;21627;48.216;16.482;2022-08-23T10:58:30;3.83;;;2.08;;
35518;SDS011;21627;48.216;16.482;2022-08-23T11:01:34;3.28;;;2.50;;
35518;SDS011;21627;48.216;16.482;2022-08-23T11:07:18;3.20;;;1.55;;
35518;SDS011;21627;48.216;16.482;2022-08-23T11:21:01;2.15;;;1.50;;
35518;SDS011;21627;48.216;16.482;2022-08-23T11:31:38;1.48;;;1.38;;
35518;SDS011;21627;48.216;16.482;2022-08-23T11:34:25;1.38;;;1.23;;
35518;SDS011;21627;48.216;16.482;2022-08-23T11:48:03;3.13;;;1.38;;
35518;SDS011;21627;48.216;16.482;2022-08-23T11:50:51;2.33;;;1.25;;
35518;SDS011;21627;48.216;16.482;2022-08-23T11:53:46;1.65;;;1.20;;
35518;SDS011;21627;48.216;16.482;2022-08-23T11:59:57;3.50;;;1.40;;
35518;SDS011;21627;48.216;16.482;2022-08-23T12:16:32;7.55;;;1.90;;
35518;SDS011;21627;48.216;16.482;2022-08-23T12:27:39;2.72;;;1.70;;
35518;SDS011;21627;48.216;16.482;2022-08-23T12:30:18;3.35;;;1.67;;
35518;SDS011;21627;48.216;16.482;2022-08-23T12:33:20;1.83;;;1.33;;
35518;SDS011;21627;48.216;16.482;2022-08-23T12:36:17;1.60;;;1.30;;
35518;SDS011;21627;48.216;16.482;2022-08-23T12:39:09;2.38;;;1.42;;
35518;SDS011;21627;48.216;16.482;2022-08-23T12:42:02;1.92;;;1.60;;
35518;SDS011;21627;48.216;16.482;2022-08-23T12:47:40;3.05;;;1.80;;
35518;SDS011;21627;48.216;16.482;2022-08-23T12:50:23;1.70;;;1.60;;
35518;SDS011;21627;48.216;16.482;2022-08-23T12:53:05;4.22;;;1.40;;
35518;SDS011;21627;48.216;16.482;2022-08-23T12:55:42;3.25;;;1.38;;
35518;SDS011;21627;48.216;16.482;2022-08-23T12:58:16;3.13;;;1.40;;
35518;SDS011;21627;48.216;16.482;2022-08-23T13:01:00;5.40;;;1.40;;
35518;SDS011;21627;48.216;16.482;2022-08-23T13:03:35;2.45;;;1.50;;
35518;SDS011;21627;48.216;16.482;2022-08-23T13:06:08;2.63;;;1.50;;
35518;SDS011;21627;48.216;16.482;2022-08-23T13:08:51;4.47;;;1.27;;
35518;SDS011;21627;48.216;16.482;2022-08-23T13:11:29;1.38;;;1.25;;
35518;SDS011;21627;48.216;16.482;2022-08-23T13:13:59;3.33;;;1.42;;
35518;SDS011;21627;48.216;16.482;2022-08-23T13:16:50;1.65;;;1.55;;
35518;SDS011;21627;48.216;16.482;2022-08-23T13:25:10;1.20;;;1.10;;
35518;SDS011;21627;48.216;16.482;2022-08-23T13:28:07;2.35;;;1.20;;
35518;SDS011;21627;48.216;16.482;2022-08-23T13:31:05;4.20;;;1.60;;
35518;SDS011;21627;48.216;16.482;2022-08-23T13:33:37;9.07;;;1.40;;
35518;SDS011;21627;48.216;16.482;2022-08-23T13:36:16;2.83;;;1.70;;
35518;SDS011;21627;48.216;16.482;2022-08-23T13:38:47;2.53;;;1.52;;
35518;SDS011;21627;48.216;16.482;2022-08-23T13:41:30;1.73;;;1.20;;
35518;SDS011;21627;48.216;16.482;2022-08-23T13:44:04;1.48;;;1.27;;
35518;SDS011;21627;48.216;16.482;2022-08-23T13:46:42;5.45;;;1.45;;
35518;SDS011;21627;48.216;16.482;2022-08-23T13:54:46;1.30;;;1.10;;
35518;SDS011;21627;48.216;16.482;2022-08-23T13:57:18;3.25;;;1.25;;
35518;SDS011;21627;48.216;16.482;2022-08-23T13:59:53;2.38;;;1.10;;
35518;SDS011;21627;48.216;16.482;2022-08-23T14:02:24;1.20;;;1.10;;
35518;SDS011;21627;48.216;16.482;2022-08-23T14:04:52;1.30;;;0.90;;
35518;SDS011;21627;48.216;16.482;2022-08-23T14:07:19;1.85;;;1.15;;
35518;SDS011;21627;48.216;16.482;2022-08-23T14:09:46;4.95;;;1.50;;
35518;SDS011;21627;48.216;16.482;2022-08-23T14:12:20;1.85;;;1.20;;
35518;SDS011;21627;48.216;16.482;2022-08-23T14:14:56;4.90;;;1.17;;
35518;SDS011;21627;48.216;16.482;2022-08-23T14:17:24;1.42;;;1.25;;
35518;SDS011;21627;48.216;16.482;2022-08-23T14:19:52;1.35;;;0.85;;
35518;SDS011;21627;48.216;16.482;2022-08-23T14:22:39;1.45;;;1.00;;
35518;SDS011;21627;48.216;16.482;2022-08-23T14:25:06;5.13;;;1.38;;
35518;SDS011;21627;48.216;16.482;2022-08-23T14:27:36;2.35;;;1.33;;
35518;SDS011;21627;48.216;16.482;2022-08-23T14:30:11;2.03;;;1.05;;
35518;SDS011;21627;48.216;16.482;2022-08-23T14:33:02;1.30;;;1.10;;
35518;SDS011;21627;48.216;16.482;2022-08-23T14:35:30;1.45;;;1.00;;
35518;SDS011;21627;48.216;16.482;2022-08-23T14:37:57;2.05;;;1.25;;
35518;SDS011;21627;48.216;16.482;2022-08-23T14:40:33;2.58;;;1.55;;
35518;SDS011;21627;48.216;16.482;2022-08-23T14:43:01;1.42;;;0.90;;
35518;SDS011;21627;48.216;16.482;2022-08-23T14:45:31;1.52;;;1.15;;
35518;SDS011;21627;48.216;16.482;2022-08-23T14:47:58;2.03;;;1.17;;
35518;SDS011;21627;48.216;16.482;2022-08-23T14:50:25;2.42;;;1.38;;
35518;SDS011;21627;48.216;16.482;2022-08-23T14:52:54;1.30;;;1.15;;
35518;SDS011;21627;48.216;16.482;2022-08-23T14:55:25;1.15;;;1.00;;
35518;SDS011;21627;48.216;16.482;2022-08-23T14:57:52;2.75;;;1.30;;
35518;SDS011;21627;48.216;16.482;2022-08-23T15:00:20;2.50;;;1.23;;
35518;SDS011;21627;48.216;16.482;2022-08-23T15:02:47;2.22;;;1.40;;
35518;SDS011;21627;48.216;16.482;2022-08-23T15:05:16;3.17;;;1.27;;
35518;SDS011;21627;48.216;16.482;2022-08-23T15:07:47;2.22;;;1.20;;
35518;SDS011;21627;48.216;16.482;2022-08-23T15:10:14;2.00;;;1.30;;
35518;SDS011;21627;48.216;16.482;2022-08-23T15:13:02;1.40;;;0.93;;
35518;SDS011;21627;48.216;16.482;2022-08-23T15:15:50;1.90;;;1.20;;
35518;SDS011;21627;48.216;16.482;2022-08-23T15:18:18;1.10;;;1.00;;
35518;SDS011;21627;48.216;16.482;2022-08-23T15:20:46;1.42;;;1.13;;
35518;SDS011;21627;48.216;16.482;2022-08-23T15:23:20;1.48;;;1.20;;
35518;SDS011;21627;48.216;16.482;2022-08-23T15:25:47;1.00;;;0.85;;
35518;SDS011;21627;48.216;16.482;2022-08-23T15:28:16;1.17;;;1.05;;
35518;SDS011;21627;48.216;16.482;2022-08-23T15:30:48;1.15;;;0.90;;
35518;SDS011;21627;48.216;16.482;2022-08-23T15:33:17;1.88;;;0.90;;
35518;SDS011;21627;48.216;16.482;2022-08-23T15:35:58;5.60;;;1.20;;
35518;SDS011;21627;48.216;16.482;2022-08-23T15:38:29;1.15;;;1.00;;
35518;SDS011;21627;48.216;16.482;2022-08-23T15:40:57;1.65;;;1.13;;
35518;SDS011;21627;48.216;16.482;2022-08-23T15:43:26;1.42;;;1.05;;
35518;SDS011;21627;48.216;16.482;2022-08-23T15:46:02;2.25;;;1.15;;
35518;SDS011;21627;48.216;16.482;2022-08-23T15:48:35;2.92;;;1.10;;
35518;SDS011;21627;48.216;16.482;2022-08-23T15:53:39;1.70;;;1.20;;
35518;SDS011;21627;48.216;16.482;2022-08-23T15:56:08;1.60;;;1.17;;
35518;SDS011;21627;48.216;16.482;2022-08-23T15:58:44;1.60;;;0.93;;
35518;SDS011;21627;48.216;16.482;2022-08-23T16:01:12;3.65;;;1.52;;
35518;SDS011;21627;48.216;16.482;2022-08-23T16:03:43;7.18;;;1.80;;
35518;SDS011;21627;48.216;16.482;2022-08-23T16:06:11;4.38;;;1.25;;
35518;SDS011;21627;48.216;16.482;2022-08-23T16:08:43;2.42;;;1.33;;
35518;SDS011;21627;48.216;16.482;2022-08-23T16:11:14;1.50;;;1.10;;
35518;SDS011;21627;48.216;16.482;2022-08-23T16:13:43;2.13;;;1.00;;
35518;SDS011;21627;48.216;16.482;2022-08-23T16:16:16;13.45;;;2.17;;
35518;SDS011;21627;48.216;16.482;2022-08-23T16:18:53;9.27;;;1.83;;
35518;SDS011;21627;48.216;16.482;2022-08-23T16:21:23;4.38;;;1.15;;
35518;SDS011;21627;48.216;16.482;2022-08-23T16:23:53;5.82;;;1.80;;
35518;SDS011;21627;48.216;16.482;2022-08-23T16:26:23;5.53;;;1.63;;
35518;SDS011;21627;48.216;16.482;2022-08-23T16:29:06;1.40;;;1.10;;
35518;SDS011;21627;48.216;16.482;2022-08-23T16:31:38;2.28;;;1.30;;
35518;SDS011;21627;48.216;16.482;2022-08-23T16:34:08;1.42;;;0.95;;
35518;SDS011;21627;48.216;16.482;2022-08-23T16:36:43;2.75;;;1.40;;
35518;SDS011;21627;48.216;16.482;2022-08-23T16:39:15;1.73;;;1.40;;
35518;SDS011;21627;48.216;16.482;2022-08-23T16:41:42;1.67;;;1.20;;
35518;SDS011;21627;48.216;16.482;2022-08-23T16:44:10;2.47;;;1.40;;
35518;SDS011;21627;48.216;16.482;2022-08-23T16:46:38;1.30;;;1.17;;
35518;SDS011;21627;48.216;16.482;2022-08-23T16:49:17;2.40;;;1.30;;
35518;SDS011;21627;48.216;16.482;2022-08-23T16:51:45;3.05;;;1.50;;
35518;SDS011;21627;48.216;16.482;2022-08-23T16:54:13;1.67;;;1.33;;
35518;SDS011;21627;48.216;16.482;2022-08-23T16:56:43;1.63;;;1.35;;
35518;SDS011;21627;48.216;16.482;2022-08-23T16:59:11;2.67;;;1.45;;
35518;SDS011;21627;48.216;16.482;2022-08-23T17:01:53;2.00;;;1.60;;
35518;SDS011;21627;48.216;16.482;2022-08-23T17:04:25;2.47;;;1.67;;
35518;SDS011;21627;48.216;16.482;2022-08-23T17:06:57;2.55;;;1.80;;
35518;SDS011;21627;48.216;16.482;2022-08-23T17:09:28;2.00;;;1.70;;